首页
METAR-TAF:

METAR-TAF

机场 :

臺中清泉崗機場

臺中市, 台湾

纬度: 24-15-53N, 经度: 120-37-14E, 海拔: 202米

当前天气观测

该预报发布于28分钟前的04:30 UTC
风速13节,风向
温度 25°C
湿度 94%
气压 1003 hPa
能见度10公里或以上
散云层高于600英尺
多云层高于1200英尺
多云层高于4000英尺

METAR: RCMQ 280430Z 01013KT 9999 SCT006 BKN012 BKN040 25/24 Q1003 NOSIG RMK A2962 APCH CLD SCT006

时间: 12:58 (04:58 UTC)

预报

该预报发布于5小时和48分钟前的23:10 UTC
预报有效从28日的 00点(UTC)到 28日的 24点(UTC)
风速12节,风向南转南东
能見度: 0800
散云层高于400英尺
多云层高于800英尺
少量云层高于1000英尺, 积雨云.
阴天层高于1600英尺
雷暴, 雨
成为
从 28日的 01点(UTC)到 28日的 02点(UTC)
能見度: 2400
散云层高于800英尺
多云层高于2500英尺
小雨, 轻雾
成为
从 28日的 03点(UTC)到 28日的 06点(UTC)
风速6节,风向
能見度: 5000
轻雾
短暂存在
从 28日的 08点(UTC)到 28日的 13点(UTC)
能見度: 8000
少量云层高于1000英尺
多云层高于8000英尺
成为
从 28日的 22点(UTC)到 28日的 23点(UTC)
能見度: 8000
少量云层高于1000英尺
多云层高于8000英尺

TAF: RCMQ 272310Z 2800/2824 16012KT 0800 TSRA SCT004 BKN008 FEW010CB OVC016 TX29/2805Z TN23/2821Z BECMG 2801/2802 2400 -RA BR SCT008 BKN025 BECMG 2803/2806 35006KT 5000 BR TEMPO 2808/2813 8000 FEW010 BKN080 BECMG 2822/2823 8000 FEW010 BKN080

超过4000个机场的气象观测和天气预报(METAR&TAF报告)。

可查询的气象台以黄色和红色小点在地图上表示。

将鼠标移到小点上方,可查看气象台名称。

然后点击查看天气观测和预报。

如需切换地图:点击带黑十字的绿色按钮放大地图;点击带横线的绿色按钮缩小地图;或者点击绿色箭头查看邻近地区的地图。


METAR-TAF: